Terminal Aerodrome Forecast
Issued by NWS

Home | Current Version | Previous Version | Text Only | Print | Product List | Glossary On
Versions: 1 2 3 4 5 6 7 8 9 10 11 12 13 14 15 16 17 18
000
FTUS41 KBTV 131730
TAFPBG
TAF
KPBG 131730Z 1318/1418 28013G23KT P6SM DRSN BKN060 BKN120
     FM132200 29010G21KT P6SM DRSN SCT120
     FM140100 29007KT P6SM SKC
     FM140500 25006KT P6SM FEW200
     FM141500 29007KT P6SM SKC=

USA.gov is the U.S. government's official web portal to all federal, state and local government web resources and services.